SAS9946 EKCH-ESSA
Flight info
| Callsign | SAS9946 |
|---|---|
| Flight time | 0h 52m |
| Altitude | 39000 |
| Route | KEMAX5C KEMAX N851 ROXEN DCT MIKNA N851 PELUP Z226 NILUG NILUG2M |
| Aircraft | A359/H-SDE2E3GHIJ3J4J5LM1ORWXY/LB1D1 |
Departure
| Time | 2026-04-25 18:26 |
|---|---|
| Airport | Copenhagen Kastrup Airport (EKCH) |
Arrival
| Time | 2026-04-25 19:18 |
|---|---|
| Airport | Stockholm-Arlanda Airport (ESSA) |
| Time | Latitude | Longitude | Altitude | Speed | Heading |
|---|---|---|---|---|---|
| 2026-04-25 18:06 | 55.62432 | 12.65064 | 30 ft | 0 kts | 269° |
| 2026-04-25 18:18 | 55.62432 | 12.65073 | 30 ft | 2 kts | 269° |
| 2026-04-25 18:18 | 55.62433 | 12.65107 | 28 ft | 3 kts | 269° |
| 2026-04-25 18:18 | 55.62433 | 12.65141 | 27 ft | 3 kts | 266° |
| 2026-04-25 18:18 | 55.62437 | 12.65169 | 27 ft | 3 kts | 221° |
| 2026-04-25 18:19 | 55.62453 | 12.65184 | 28 ft | 3 kts | 187° |
| 2026-04-25 18:19 | 55.62469 | 12.65186 | 29 ft | 1 kts | 179° |
| 2026-04-25 18:19 | 55.62483 | 12.65186 | 30 ft | 3 kts | 179° |
| 2026-04-25 18:19 | 55.62503 | 12.65185 | 27 ft | 3 kts | 179° |
| 2026-04-25 18:20 | 55.62520 | 12.65184 | 28 ft | 1 kts | 179° |
| 2026-04-25 18:20 | 55.62522 | 12.65184 | 28 ft | 4 kts | 179° |
| 2026-04-25 18:22 | 55.62519 | 12.65184 | 28 ft | 2 kts | 179° |
| 2026-04-25 18:23 | 55.62462 | 12.65193 | 28 ft | 11 kts | 168° |
| 2026-04-25 18:23 | 55.62369 | 12.65202 | 30 ft | 16 kts | 178° |
| 2026-04-25 18:23 | 55.62243 | 12.65196 | 30 ft | 20 kts | 186° |
| 2026-04-25 18:23 | 55.62114 | 12.65069 | 30 ft | 23 kts | 214° |
| 2026-04-25 18:24 | 55.61971 | 12.64904 | 30 ft | 26 kts | 212° |
| 2026-04-25 18:24 | 55.61849 | 12.64764 | 30 ft | 22 kts | 213° |
| 2026-04-25 18:24 | 55.61720 | 12.64617 | 30 ft | 16 kts | 213° |
| 2026-04-25 18:24 | 55.61663 | 12.64505 | 30 ft | 13 kts | 256° |
| 2026-04-25 18:25 | 55.61651 | 12.64322 | 30 ft | 17 kts | 266° |
| 2026-04-25 18:25 | 55.61639 | 12.64117 | 34 ft | 13 kts | 251° |
| 2026-04-25 18:25 | 55.61577 | 12.63997 | 32 ft | 16 kts | 222° |
| 2026-04-25 18:25 | 55.61307 | 12.63578 | 33 ft | 111 kts | 222° |
| 2026-04-25 18:26 | 55.60426 | 12.62206 | 176 ft | 212 kts | 229° |
| 2026-04-25 18:26 | 55.59251 | 12.60437 | 1544 ft | 232 kts | 228° |
| 2026-04-25 18:26 | 55.57960 | 12.58501 | 2602 ft | 250 kts | 230° |
| 2026-04-25 18:26 | 55.56635 | 12.56393 | 3419 ft | 262 kts | 230° |
| 2026-04-25 18:27 | 55.55259 | 12.54196 | 4263 ft | 271 kts | 230° |
| 2026-04-25 18:27 | 55.53628 | 12.52346 | 5187 ft | 289 kts | 206° |
| 2026-04-25 18:27 | 55.51599 | 12.51821 | 6188 ft | 302 kts | 179° |
| 2026-04-25 18:27 | 55.49573 | 12.52831 | 7155 ft | 307 kts | 152° |
| 2026-04-25 18:28 | 55.47864 | 12.55032 | 8073 ft | 310 kts | 137° |
| 2026-04-25 18:28 | 55.46269 | 12.57636 | 9015 ft | 315 kts | 135° |
| 2026-04-25 18:28 | 55.44677 | 12.60352 | 9951 ft | 320 kts | 135° |
| 2026-04-25 18:29 | 55.42360 | 12.67356 | 10752 ft | 352 kts | 92° |
| 2026-04-25 18:29 | 55.42590 | 12.71618 | 11210 ft | 349 kts | 63° |
| 2026-04-25 18:30 | 55.47567 | 12.79622 | 13629 ft | 329 kts | 25° |
| 2026-04-25 18:30 | 55.49407 | 12.81970 | 14372 ft | 333 kts | 26° |
| 2026-04-25 18:30 | 55.51277 | 12.84430 | 15095 ft | 337 kts | 25° |
| 2026-04-25 18:30 | 55.53155 | 12.86935 | 15821 ft | 340 kts | 25° |
| 2026-04-25 18:31 | 55.55043 | 12.89477 | 16564 ft | 342 kts | 24° |
| 2026-04-25 18:31 | 55.56943 | 12.92047 | 17284 ft | 345 kts | 24° |
| 2026-04-25 18:31 | 55.58868 | 12.94659 | 17939 ft | 353 kts | 24° |
| 2026-04-25 18:31 | 55.60832 | 12.97328 | 18484 ft | 358 kts | 24° |
| 2026-04-25 18:32 | 55.62814 | 13.00027 | 19149 ft | 361 kts | 26° |
| 2026-04-25 18:32 | 55.64803 | 13.02748 | 19765 ft | 363 kts | 25° |
| 2026-04-25 18:32 | 55.66812 | 13.05501 | 20353 ft | 366 kts | 25° |
| 2026-04-25 18:32 | 55.68835 | 13.08274 | 20926 ft | 369 kts | 25° |
| 2026-04-25 18:33 | 55.70876 | 13.11075 | 21476 ft | 372 kts | 25° |
| 2026-04-25 18:33 | 55.72934 | 13.13903 | 22011 ft | 375 kts | 25° |
| 2026-04-25 18:33 | 55.75006 | 13.16754 | 22543 ft | 379 kts | 25° |
| 2026-04-25 18:33 | 55.77097 | 13.19635 | 23076 ft | 382 kts | 24° |
| 2026-04-25 18:34 | 55.79179 | 13.22507 | 23551 ft | 385 kts | 24° |
| 2026-04-25 18:34 | 55.81305 | 13.25446 | 23987 ft | 388 kts | 24° |
| 2026-04-25 18:34 | 55.83435 | 13.28396 | 24438 ft | 390 kts | 25° |
| 2026-04-25 18:34 | 55.85583 | 13.31374 | 24965 ft | 392 kts | 25° |
| 2026-04-25 18:35 | 55.87739 | 13.34366 | 25448 ft | 394 kts | 26° |
| 2026-04-25 18:35 | 55.89902 | 13.37374 | 25918 ft | 396 kts | 26° |
| 2026-04-25 18:35 | 55.92081 | 13.40408 | 26387 ft | 399 kts | 26° |
| 2026-04-25 18:35 | 55.94278 | 13.43470 | 26869 ft | 402 kts | 26° |
| 2026-04-25 18:36 | 55.96487 | 13.46554 | 27372 ft | 405 kts | 26° |
| 2026-04-25 18:36 | 55.98714 | 13.49667 | 27872 ft | 408 kts | 26° |
| 2026-04-25 18:36 | 56.00948 | 13.52795 | 28387 ft | 411 kts | 26° |
| 2026-04-25 18:36 | 56.03213 | 13.55971 | 28905 ft | 414 kts | 26° |
| 2026-04-25 18:37 | 56.05460 | 13.59126 | 29394 ft | 417 kts | 26° |
| 2026-04-25 18:37 | 56.07750 | 13.62347 | 29901 ft | 421 kts | 27° |
| 2026-04-25 18:37 | 56.10063 | 13.65604 | 30350 ft | 426 kts | 28° |
| 2026-04-25 18:37 | 56.12409 | 13.68911 | 30649 ft | 432 kts | 28° |
| 2026-04-25 18:38 | 56.14778 | 13.72261 | 31023 ft | 436 kts | 28° |
| 2026-04-25 18:38 | 56.17172 | 13.75651 | 31410 ft | 440 kts | 28° |
| 2026-04-25 18:38 | 56.19585 | 13.79074 | 31792 ft | 444 kts | 28° |
| 2026-04-25 18:38 | 56.22021 | 13.82535 | 32145 ft | 448 kts | 29° |
| 2026-04-25 18:39 | 56.24478 | 13.86030 | 32491 ft | 454 kts | 30° |
| 2026-04-25 18:39 | 56.26976 | 13.89585 | 32608 ft | 463 kts | 30° |
| 2026-04-25 18:39 | 56.29510 | 13.93203 | 32911 ft | 467 kts | 30° |
| 2026-04-25 18:39 | 56.32059 | 13.96854 | 33272 ft | 469 kts | 30° |
| 2026-04-25 18:40 | 56.34619 | 14.00523 | 33641 ft | 472 kts | 31° |
| 2026-04-25 18:40 | 56.37207 | 14.04240 | 33919 ft | 475 kts | 31° |
| 2026-04-25 18:40 | 56.39795 | 14.07962 | 34162 ft | 479 kts | 31° |
| 2026-04-25 18:40 | 56.42410 | 14.11731 | 34419 ft | 481 kts | 31° |
| 2026-04-25 18:41 | 56.45029 | 14.15512 | 34768 ft | 482 kts | 31° |
| 2026-04-25 18:41 | 56.47644 | 14.19297 | 35145 ft | 482 kts | 31° |
| 2026-04-25 18:41 | 56.50228 | 14.23040 | 35486 ft | 482 kts | 31° |
| 2026-04-25 18:41 | 56.52851 | 14.26848 | 35840 ft | 483 kts | 32° |
| 2026-04-25 18:42 | 56.55478 | 14.30666 | 36208 ft | 483 kts | 32° |
| 2026-04-25 18:42 | 56.56360 | 14.31950 | 36374 ft | 483 kts | 32° |
| 2026-04-25 18:42 | 56.60715 | 14.38299 | 37007 ft | 484 kts | 32° |
| 2026-04-25 18:42 | 56.63337 | 14.42132 | 37355 ft | 484 kts | 32° |
| 2026-04-25 18:43 | 56.65965 | 14.45980 | 37708 ft | 485 kts | 32° |
| 2026-04-25 18:43 | 56.68589 | 14.49830 | 38069 ft | 485 kts | 32° |
| 2026-04-25 18:43 | 56.71220 | 14.53697 | 38427 ft | 486 kts | 33° |
| 2026-04-25 18:43 | 56.73845 | 14.57562 | 38699 ft | 487 kts | 33° |
| 2026-04-25 18:44 | 56.79101 | 14.65325 | 38817 ft | 486 kts | 33° |
| 2026-04-25 18:44 | 56.84352 | 14.73107 | 38773 ft | 486 kts | 33° |
| 2026-04-25 18:45 | 56.88713 | 14.79593 | 38773 ft | 486 kts | 33° |
| 2026-04-25 18:45 | 56.94812 | 14.88695 | 38776 ft | 488 kts | 34° |
| 2026-04-25 18:46 | 57.00075 | 14.96584 | 38807 ft | 489 kts | 34° |
| 2026-04-25 18:46 | 57.04487 | 15.03219 | 38815 ft | 489 kts | 34° |
| 2026-04-25 18:47 | 57.09736 | 15.11143 | 38806 ft | 488 kts | 34° |
| 2026-04-25 18:47 | 57.14943 | 15.19032 | 38804 ft | 488 kts | 34° |
| 2026-04-25 18:48 | 57.20183 | 15.27001 | 38807 ft | 488 kts | 34° |
| 2026-04-25 18:48 | 57.25414 | 15.34985 | 38815 ft | 488 kts | 34° |
| 2026-04-25 18:49 | 57.30639 | 15.42991 | 38811 ft | 488 kts | 34° |
| 2026-04-25 18:49 | 57.35865 | 15.51029 | 38811 ft | 488 kts | 35° |
| 2026-04-25 18:50 | 57.41085 | 15.59090 | 38813 ft | 488 kts | 35° |
| 2026-04-25 18:50 | 57.46295 | 15.67166 | 38813 ft | 488 kts | 35° |
| 2026-04-25 18:51 | 57.50628 | 15.73905 | 38836 ft | 488 kts | 35° |
| 2026-04-25 18:51 | 57.56673 | 15.83344 | 38834 ft | 488 kts | 35° |
| 2026-04-25 18:52 | 57.61876 | 15.91499 | 38815 ft | 490 kts | 36° |
| 2026-04-25 18:52 | 57.67089 | 15.99705 | 38816 ft | 491 kts | 36° |
| 2026-04-25 18:53 | 57.72301 | 16.07943 | 38819 ft | 491 kts | 36° |
| 2026-04-25 18:53 | 57.77515 | 16.16215 | 38816 ft | 491 kts | 36° |
| 2026-04-25 18:54 | 57.85315 | 16.28650 | 38811 ft | 490 kts | 36° |
| 2026-04-25 18:55 | 57.90536 | 16.36802 | 38670 ft | 486 kts | 31° |
| 2026-04-25 18:55 | 57.96329 | 16.43218 | 38418 ft | 482 kts | 23° |
| 2026-04-25 18:55 | 57.99328 | 16.46039 | 38164 ft | 481 kts | 22° |
| 2026-04-25 18:56 | 58.02348 | 16.48763 | 37910 ft | 481 kts | 21° |
| 2026-04-25 18:56 | 58.05371 | 16.51449 | 37643 ft | 480 kts | 21° |
| 2026-04-25 18:56 | 58.08397 | 16.54135 | 37382 ft | 480 kts | 21° |
| 2026-04-25 18:56 | 58.11418 | 16.56835 | 37130 ft | 480 kts | 21° |
| 2026-04-25 18:57 | 58.14439 | 16.59554 | 36874 ft | 480 kts | 21° |
| 2026-04-25 18:57 | 58.17413 | 16.62249 | 36559 ft | 479 kts | 21° |
| 2026-04-25 18:57 | 58.20414 | 16.64984 | 35749 ft | 478 kts | 21° |
| 2026-04-25 18:57 | 58.22437 | 16.66831 | 35170 ft | 479 kts | 21° |
| 2026-04-25 18:58 | 58.26458 | 16.70511 | 33979 ft | 481 kts | 21° |
| 2026-04-25 18:58 | 58.32463 | 16.76024 | 31832 ft | 483 kts | 21° |
| 2026-04-25 18:58 | 58.35495 | 16.78817 | 30739 ft | 483 kts | 21° |
| 2026-04-25 18:59 | 58.41546 | 16.84406 | 28328 ft | 481 kts | 21° |
| 2026-04-25 18:59 | 58.47409 | 16.89859 | 26510 ft | 454 kts | 21° |
| 2026-04-25 19:00 | 58.53019 | 16.95083 | 24877 ft | 444 kts | 22° |
| 2026-04-25 19:00 | 58.55781 | 16.97656 | 24066 ft | 439 kts | 22° |
| 2026-04-25 19:01 | 58.61216 | 17.02732 | 22327 ft | 428 kts | 22° |
| 2026-04-25 19:01 | 58.63868 | 17.05221 | 21524 ft | 420 kts | 22° |
| 2026-04-25 19:01 | 58.66471 | 17.07668 | 20738 ft | 412 kts | 22° |
| 2026-04-25 19:01 | 58.69027 | 17.10076 | 19939 ft | 405 kts | 22° |
| 2026-04-25 19:02 | 58.74021 | 17.14787 | 18377 ft | 394 kts | 22° |
| 2026-04-25 19:02 | 58.76464 | 17.17095 | 17527 ft | 389 kts | 22° |
| 2026-04-25 19:02 | 58.78874 | 17.19377 | 16702 ft | 382 kts | 22° |
| 2026-04-25 19:03 | 58.82775 | 17.23079 | 15390 ft | 371 kts | 22° |
| 2026-04-25 19:03 | 58.85821 | 17.25975 | 14338 ft | 366 kts | 22° |
| 2026-04-25 19:03 | 58.88093 | 17.28139 | 13560 ft | 362 kts | 22° |
| 2026-04-25 19:04 | 58.92545 | 17.32383 | 11931 ft | 351 kts | 22° |
| 2026-04-25 19:04 | 58.94719 | 17.34462 | 11166 ft | 345 kts | 22° |
| 2026-04-25 19:05 | 58.98840 | 17.38426 | 10602 ft | 310 kts | 22° |
| 2026-04-25 19:05 | 59.02459 | 17.41932 | 10384 ft | 278 kts | 21° |
| 2026-04-25 19:05 | 59.04196 | 17.43599 | 10260 ft | 279 kts | 21° |
| 2026-04-25 19:06 | 59.05934 | 17.45259 | 10137 ft | 278 kts | 21° |
| 2026-04-25 19:06 | 59.09400 | 17.48583 | 9874 ft | 277 kts | 21° |
| 2026-04-25 19:06 | 59.11127 | 17.50248 | 9617 ft | 275 kts | 22° |
| 2026-04-25 19:07 | 59.14533 | 17.53546 | 8835 ft | 272 kts | 22° |
| 2026-04-25 19:07 | 59.16220 | 17.55184 | 8468 ft | 267 kts | 22° |
| 2026-04-25 19:08 | 59.19401 | 17.58291 | 7749 ft | 250 kts | 22° |
| 2026-04-25 19:08 | 59.20933 | 17.59787 | 7395 ft | 244 kts | 22° |
| 2026-04-25 19:09 | 59.25444 | 17.64177 | 6327 ft | 239 kts | 22° |
| 2026-04-25 19:09 | 59.26450 | 17.65157 | 6076 ft | 238 kts | 22° |
| 2026-04-25 19:09 | 59.29848 | 17.68475 | 5456 ft | 233 kts | 22° |
| 2026-04-25 19:10 | 59.31278 | 17.69877 | 5121 ft | 227 kts | 22° |
| 2026-04-25 19:10 | 59.32671 | 17.71247 | 4763 ft | 222 kts | 22° |
| 2026-04-25 19:10 | 59.34042 | 17.72597 | 4430 ft | 218 kts | 22° |
| 2026-04-25 19:10 | 59.35381 | 17.73916 | 4145 ft | 211 kts | 22° |
| 2026-04-25 19:11 | 59.36676 | 17.75193 | 4012 ft | 210 kts | 22° |
| 2026-04-25 19:11 | 59.37982 | 17.76474 | 3876 ft | 209 kts | 22° |
| 2026-04-25 19:11 | 59.39245 | 17.77721 | 3751 ft | 197 kts | 22° |
| 2026-04-25 19:11 | 59.40434 | 17.78901 | 3640 ft | 186 kts | 22° |
| 2026-04-25 19:12 | 59.41557 | 17.80016 | 3537 ft | 176 kts | 22° |
| 2026-04-25 19:12 | 59.42615 | 17.81068 | 3413 ft | 166 kts | 21° |
| 2026-04-25 19:12 | 59.43621 | 17.82065 | 3301 ft | 158 kts | 21° |
| 2026-04-25 19:12 | 59.44603 | 17.83031 | 3178 ft | 158 kts | 21° |
| 2026-04-25 19:13 | 59.45584 | 17.83991 | 3046 ft | 157 kts | 21° |
| 2026-04-25 19:13 | 59.46575 | 17.84896 | 2916 ft | 156 kts | 17° |
| 2026-04-25 19:13 | 59.47614 | 17.85474 | 2781 ft | 155 kts | 10° |
| 2026-04-25 19:13 | 59.48672 | 17.85901 | 2645 ft | 155 kts | 9° |
| 2026-04-25 19:14 | 59.49733 | 17.86287 | 2521 ft | 155 kts | 8° |
| 2026-04-25 19:14 | 59.50080 | 17.86409 | 2499 ft | 156 kts | 8° |
| 2026-04-25 19:14 | 59.51877 | 17.87057 | 2486 ft | 157 kts | 8° |
| 2026-04-25 19:14 | 59.52947 | 17.87447 | 2463 ft | 155 kts | 8° |
| 2026-04-25 19:15 | 59.53996 | 17.87827 | 2245 ft | 152 kts | 7° |
| 2026-04-25 19:15 | 59.55041 | 17.88200 | 2016 ft | 150 kts | 7° |
| 2026-04-25 19:15 | 59.56045 | 17.88563 | 1811 ft | 142 kts | 7° |
| 2026-04-25 19:15 | 59.56957 | 17.88890 | 1616 ft | 127 kts | 6° |
| 2026-04-25 19:16 | 59.57801 | 17.89192 | 1441 ft | 117 kts | 6° |
| 2026-04-25 19:16 | 59.58569 | 17.89468 | 1276 ft | 109 kts | 6° |
| 2026-04-25 19:16 | 59.59250 | 17.89712 | 1130 ft | 109 kts | 6° |
| 2026-04-25 19:16 | 59.60007 | 17.89986 | 966 ft | 112 kts | 6° |
| 2026-04-25 19:17 | 59.60782 | 17.90267 | 794 ft | 114 kts | 6° |
| 2026-04-25 19:17 | 59.61568 | 17.90551 | 646 ft | 116 kts | 5° |
| 2026-04-25 19:17 | 59.62369 | 17.90840 | 459 ft | 117 kts | 3° |
| 2026-04-25 19:17 | 59.63178 | 17.91114 | 290 ft | 119 kts | 5° |
| 2026-04-25 19:18 | 59.63995 | 17.91418 | 133 ft | 119 kts | 6° |
| 2026-04-25 19:18 | 59.64727 | 17.91683 | 112 ft | 89 kts | 10° |
| 2026-04-25 19:18 | 59.65152 | 17.91879 | 109 ft | 23 kts | 29° |
| 2026-04-25 19:18 | 59.65276 | 17.92062 | 106 ft | 19 kts | 43° |
| 2026-04-25 19:19 | 59.65381 | 17.92257 | 110 ft | 21 kts | 43° |
| 2026-04-25 19:19 | 59.65483 | 17.92449 | 109 ft | 20 kts | 49° |
| 2026-04-25 19:19 | 59.65538 | 17.92684 | 111 ft | 18 kts | 75° |
| 2026-04-25 19:19 | 59.65549 | 17.92762 | 111 ft | 19 kts | 75° |
| 2026-04-25 19:20 | 59.65608 | 17.93225 | 112 ft | 14 kts | 75° |
| 2026-04-25 19:20 | 59.65635 | 17.93445 | 114 ft | 19 kts | 76° |
| 2026-04-25 19:20 | 59.65665 | 17.93676 | 117 ft | 18 kts | 76° |
| 2026-04-25 19:20 | 59.65696 | 17.93924 | 121 ft | 18 kts | 76° |
| 2026-04-25 19:21 | 59.65723 | 17.94132 | 122 ft | 6 kts | 76° |
| 2026-04-25 19:21 | 59.65682 | 17.94317 | 120 ft | 7 kts | 168° |
| 2026-04-25 19:21 | 59.65620 | 17.94344 | 125 ft | 11 kts | 167° |
| 2026-04-25 19:22 | 59.65539 | 17.94382 | 130 ft | 10 kts | 169° |
| 2026-04-25 19:22 | 59.65476 | 17.94369 | 126 ft | 9 kts | 171° |
| 2026-04-25 19:22 | 59.65421 | 17.94399 | 130 ft | 3 kts | 143° |
| 2026-04-25 19:23 | 59.65389 | 17.94431 | 128 ft | 4 kts | 188° |
| 2026-04-25 19:23 | 59.65389 | 17.94368 | 132 ft | 5 kts | 299° |
| 2026-04-25 19:23 | 59.65397 | 17.94341 | 126 ft | 0 kts | 299° |